createdAt,value
2017-12-31T00:02:23.924Z,10.13
2017-12-31T00:04:51.460Z,10.70
2017-12-31T00:07:19.039Z,9.63
2017-12-31T00:09:46.585Z,10.10
2017-12-31T00:12:14.186Z,8.90
2017-12-31T00:14:41.741Z,9.77
2017-12-31T00:17:09.264Z,10.47
2017-12-31T00:19:36.829Z,9.57
2017-12-31T00:22:04.453Z,10.10
2017-12-31T00:24:32.069Z,9.87
2017-12-31T00:26:59.599Z,10.83
2017-12-31T00:29:27.197Z,11.20
2017-12-31T00:31:54.717Z,11.90
2017-12-31T00:34:22.361Z,11.83
2017-12-31T00:36:49.919Z,11.93
2017-12-31T00:39:17.513Z,12.73
2017-12-31T00:41:45.063Z,14.30
2017-12-31T00:44:12.678Z,11.63
2017-12-31T00:46:40.298Z,12.20
2017-12-31T00:49:07.811Z,10.33
2017-12-31T00:51:35.319Z,11.67
2017-12-31T00:54:02.897Z,13.60
2017-12-31T00:56:30.418Z,10.27
2017-12-31T00:58:57.987Z,12.80
2017-12-31T01:01:25.585Z,12.93
2017-12-31T01:03:53.136Z,12.57
2017-12-31T01:06:20.873Z,10.90
2017-12-31T01:08:48.425Z,12.40
2017-12-31T01:11:15.998Z,9.80
2017-12-31T01:13:43.589Z,12.97
2017-12-31T01:16:11.130Z,13.07
2017-12-31T01:18:38.681Z,11.77
2017-12-31T01:21:06.269Z,11.83
2017-12-31T01:23:33.787Z,13.03
2017-12-31T01:26:01.496Z,15.73
2017-12-31T01:28:29.010Z,12.03
2017-12-31T01:30:56.563Z,13.23
2017-12-31T01:33:24.109Z,9.67
2017-12-31T01:35:54.546Z,9.27
2017-12-31T01:38:22.122Z,11.23
2017-12-31T01:40:49.647Z,10.30
2017-12-31T01:43:17.380Z,10.00
2017-12-31T01:45:44.931Z,11.50
2017-12-31T01:48:12.505Z,10.50
2017-12-31T01:50:40.116Z,10.20
2017-12-31T01:53:07.888Z,12.37
2017-12-31T01:55:35.658Z,11.40
2017-12-31T01:58:03.195Z,8.13
2017-12-31T02:00:30.720Z,12.27
2017-12-31T02:02:58.291Z,10.60
2017-12-31T02:05:28.028Z,12.57
2017-12-31T02:07:55.557Z,10.17
2017-12-31T02:10:23.227Z,12.50
2017-12-31T02:12:50.779Z,10.37
2017-12-31T02:15:18.316Z,11.00
2017-12-31T02:17:45.850Z,9.10
2017-12-31T02:20:13.500Z,8.73
2017-12-31T02:22:41.202Z,10.40
2017-12-31T02:25:08.750Z,9.10
2017-12-31T02:27:36.292Z,8.57
2017-12-31T02:30:03.875Z,10.77
2017-12-31T02:32:31.421Z,10.00
2017-12-31T02:34:58.970Z,10.10
2017-12-31T02:37:26.546Z,9.50
2017-12-31T02:39:54.074Z,8.10
2017-12-31T02:42:21.898Z,8.73
2017-12-31T02:44:49.465Z,9.57
2017-12-31T02:47:16.984Z,7.53
2017-12-31T02:49:44.517Z,8.60
2017-12-31T02:52:12.084Z,10.07
2017-12-31T02:54:39.641Z,11.47
2017-12-31T02:57:07.234Z,9.10
2017-12-31T02:59:34.782Z,8.17
2017-12-31T03:02:02.336Z,9.10
2017-12-31T03:04:29.892Z,9.50
2017-12-31T03:06:57.414Z,8.50
2017-12-31T03:09:24.986Z,11.73
2017-12-31T03:11:52.541Z,10.03
2017-12-31T03:14:20.350Z,9.60
2017-12-31T03:16:47.905Z,9.93
2017-12-31T03:19:15.464Z,10.67
2017-12-31T03:21:43.059Z,11.63
2017-12-31T03:24:10.610Z,10.10
2017-12-31T03:26:38.197Z,10.10
2017-12-31T03:29:05.728Z,9.87
2017-12-31T03:31:33.291Z,10.60
2017-12-31T03:34:00.864Z,12.43
2017-12-31T03:36:28.459Z,9.60
2017-12-31T03:38:56.021Z,10.17
2017-12-31T03:41:23.724Z,9.67
2017-12-31T03:43:51.284Z,9.53
2017-12-31T03:46:18.862Z,11.00
2017-12-31T03:48:46.417Z,10.47
2017-12-31T03:51:14.187Z,10.17
2017-12-31T03:53:41.781Z,8.37
2017-12-31T03:56:09.349Z,9.40
2017-12-31T03:58:36.914Z,8.30
2017-12-31T04:01:04.462Z,8.40
2017-12-31T04:03:31.980Z,7.23
2017-12-31T04:05:59.532Z,9.00
2017-12-31T04:08:27.047Z,7.47
2017-12-31T04:10:54.617Z,9.17
2017-12-31T04:13:22.308Z,6.83
2017-12-31T04:15:49.866Z,7.03
2017-12-31T04:18:17.390Z,7.30
2017-12-31T04:20:44.927Z,7.57
2017-12-31T04:23:12.457Z,6.33
2017-12-31T04:25:40.036Z,6.70
2017-12-31T04:28:07.562Z,7.10
2017-12-31T04:30:35.107Z,6.90
2017-12-31T04:33:02.682Z,7.63
2017-12-31T04:35:30.338Z,8.27
2017-12-31T04:37:57.873Z,8.80
2017-12-31T04:40:25.418Z,7.10
2017-12-31T04:42:53.019Z,7.70
2017-12-31T04:45:20.572Z,7.53
2017-12-31T04:47:48.095Z,8.40
2017-12-31T04:50:15.670Z,8.30
2017-12-31T04:52:43.194Z,7.17
2017-12-31T04:55:10.706Z,7.80
2017-12-31T04:57:38.318Z,7.50
2017-12-31T05:00:05.839Z,8.30
2017-12-31T05:02:33.400Z,7.70
2017-12-31T05:05:00.972Z,7.60
2017-12-31T05:07:28.618Z,8.57
2017-12-31T05:09:56.556Z,8.03
2017-12-31T05:12:24.160Z,7.57
2017-12-31T05:14:51.711Z,6.93
2017-12-31T05:17:19.269Z,6.80
2017-12-31T05:19:46.870Z,6.97
2017-12-31T05:22:14.551Z,6.03
2017-12-31T05:24:42.077Z,6.17
2017-12-31T05:27:09.640Z,7.07
2017-12-31T05:29:37.213Z,6.60
2017-12-31T05:32:04.765Z,6.17
2017-12-31T05:34:32.376Z,5.30
2017-12-31T05:36:59.924Z,6.10
2017-12-31T05:39:27.471Z,5.87
2017-12-31T05:41:55.023Z,6.20
2017-12-31T05:44:22.574Z,5.20
2017-12-31T05:46:50.137Z,5.03
2017-12-31T05:49:17.693Z,4.27
2017-12-31T05:51:45.204Z,4.60
2017-12-31T05:54:12.748Z,4.37
2017-12-31T05:56:40.268Z,5.80
2017-12-31T05:59:07.828Z,5.60
2017-12-31T06:01:35.344Z,6.23
2017-12-31T06:04:02.953Z,5.97
2017-12-31T06:06:30.550Z,6.13
2017-12-31T06:08:58.082Z,6.70
2017-12-31T06:11:25.685Z,5.50
2017-12-31T06:13:53.217Z,5.10
2017-12-31T06:16:20.765Z,5.10
2017-12-31T06:18:48.336Z,6.37
2017-12-31T06:21:15.855Z,5.43
2017-12-31T06:23:43.473Z,5.17
2017-12-31T06:26:11.098Z,5.10
2017-12-31T06:28:38.693Z,4.90
2017-12-31T06:31:06.212Z,4.50
2017-12-31T06:33:33.779Z,5.00
2017-12-31T06:36:01.415Z,4.10
2017-12-31T06:38:28.940Z,4.57
2017-12-31T06:40:56.485Z,3.60
2017-12-31T06:43:24.107Z,4.27
2017-12-31T06:45:51.669Z,5.13
2017-12-31T06:48:19.214Z,3.83
2017-12-31T06:50:46.767Z,3.20
2017-12-31T06:53:14.316Z,3.57
2017-12-31T06:55:41.874Z,4.07
2017-12-31T06:58:09.461Z,4.13
2017-12-31T07:00:37.070Z,2.57
2017-12-31T07:03:04.853Z,3.37
2017-12-31T07:05:32.367Z,3.30
2017-12-31T07:07:59.905Z,3.27
2017-12-31T07:10:27.472Z,2.37
2017-12-31T07:12:55.026Z,2.47
2017-12-31T07:15:22.564Z,2.90
2017-12-31T07:17:50.139Z,2.60
2017-12-31T07:20:17.687Z,3.03
2017-12-31T07:22:45.432Z,2.73
2017-12-31T07:25:13.041Z,2.87
2017-12-31T07:27:40.607Z,3.17
2017-12-31T07:30:08.125Z,3.70
2017-12-31T07:32:35.750Z,3.53
2017-12-31T07:35:03.283Z,4.50
2017-12-31T07:37:30.850Z,5.00
2017-12-31T07:39:58.413Z,4.40
2017-12-31T07:42:25.969Z,5.20
2017-12-31T07:44:53.685Z,4.37
2017-12-31T07:47:21.244Z,6.27
2017-12-31T07:49:48.834Z,3.50
2017-12-31T07:52:16.415Z,6.50
2017-12-31T07:54:43.994Z,3.60
2017-12-31T07:57:11.548Z,8.40
2017-12-31T07:59:39.145Z,6.33
2017-12-31T08:02:06.731Z,8.80
2017-12-31T08:04:34.380Z,6.70
2017-12-31T08:07:02.005Z,6.70
2017-12-31T08:09:29.590Z,6.93
2017-12-31T08:11:57.187Z,6.33
2017-12-31T08:14:24.804Z,6.07
2017-12-31T08:16:52.326Z,5.07
2017-12-31T08:19:19.910Z,7.50
2017-12-31T08:21:47.491Z,6.30
2017-12-31T08:24:15.048Z,5.60
2017-12-31T08:26:42.596Z,6.37
2017-12-31T08:29:10.190Z,6.27
2017-12-31T08:31:37.715Z,7.47
2017-12-31T08:34:05.250Z,6.37
2017-12-31T08:36:32.825Z,5.07
2017-12-31T08:39:00.439Z,7.30
2017-12-31T08:41:27.951Z,5.27
2017-12-31T08:43:55.463Z,5.70
2017-12-31T08:46:23.066Z,6.30
2017-12-31T08:48:50.611Z,6.10
2017-12-31T08:51:18.144Z,6.47
2017-12-31T08:53:45.696Z,5.50
2017-12-31T08:56:13.208Z,4.67
2017-12-31T09:00:35.949Z,5.33
2017-12-31T09:03:03.516Z,5.47
2017-12-31T09:05:31.240Z,5.27
2017-12-31T09:07:58.865Z,5.10
2017-12-31T09:10:26.385Z,5.10
2017-12-31T09:12:53.928Z,4.83
2017-12-31T09:15:21.545Z,5.60
2017-12-31T09:17:49.067Z,4.27
2017-12-31T09:20:16.599Z,3.80
2017-12-31T09:22:44.202Z,3.90
2017-12-31T09:25:11.933Z,4.50
2017-12-31T09:27:39.437Z,3.50
2017-12-31T09:30:06.957Z,3.67
2017-12-31T09:32:34.556Z,3.90
2017-12-31T09:35:02.075Z,4.40
2017-12-31T09:37:29.622Z,4.53
2017-12-31T09:39:57.205Z,3.43
2017-12-31T09:42:24.752Z,4.37
2017-12-31T09:44:52.318Z,2.97
2017-12-31T09:47:19.814Z,2.80
2017-12-31T09:49:47.361Z,3.80
2017-12-31T09:52:15.080Z,3.77
2017-12-31T09:54:42.656Z,4.30
2017-12-31T09:57:10.287Z,5.13
2017-12-31T09:59:37.795Z,4.60
2017-12-31T10:02:05.313Z,5.67
2017-12-31T10:04:32.852Z,4.23
2017-12-31T10:07:00.365Z,6.10
2017-12-31T10:09:27.895Z,5.87
2017-12-31T10:11:55.412Z,13.03
2017-12-31T10:14:22.957Z,6.07
2017-12-31T10:16:50.520Z,4.43
2017-12-31T10:19:18.032Z,4.30
2017-12-31T10:21:46.439Z,5.30
2017-12-31T10:24:13.977Z,6.00
2017-12-31T10:26:41.657Z,9.37
2017-12-31T10:29:09.232Z,9.87
2017-12-31T10:31:36.877Z,5.50
2017-12-31T10:34:04.415Z,3.80
2017-12-31T10:36:32.052Z,4.83
2017-12-31T10:38:59.605Z,10.30
2017-12-31T10:41:27.148Z,7.17
2017-12-31T10:43:54.712Z,6.53
2017-12-31T10:46:22.279Z,6.27
2017-12-31T10:48:52.432Z,8.20
2017-12-31T10:51:20.173Z,7.23
2017-12-31T10:53:47.748Z,6.73
2017-12-31T10:56:15.460Z,10.43
2017-12-31T10:58:42.995Z,7.57
2017-12-31T11:01:10.805Z,7.27
2017-12-31T11:03:38.324Z,7.40
2017-12-31T11:06:05.901Z,9.20
2017-12-31T11:08:33.423Z,29.43
2017-12-31T11:11:01.031Z,31.77
2017-12-31T11:13:28.568Z,11.03
2017-12-31T11:15:56.137Z,6.57
2017-12-31T11:18:24.383Z,5.23
2017-12-31T11:20:51.957Z,4.43
2017-12-31T11:23:19.504Z,4.03
2017-12-31T11:25:47.032Z,4.20
2017-12-31T11:28:14.887Z,4.37
2017-12-31T11:30:42.447Z,3.97
2017-12-31T11:33:09.953Z,4.30
2017-12-31T11:35:37.515Z,4.23
2017-12-31T11:38:05.052Z,4.20
2017-12-31T11:40:32.563Z,6.13
2017-12-31T11:43:00.100Z,5.53
2017-12-31T11:45:27.612Z,4.60
2017-12-31T11:47:55.148Z,5.13
2017-12-31T11:50:22.684Z,4.47
2017-12-31T11:52:50.215Z,3.47
2017-12-31T11:55:17.732Z,4.10
2017-12-31T11:57:44.688Z,6.87
2017-12-31T12:00:12.306Z,5.90
2017-12-31T12:02:39.848Z,4.93
2017-12-31T12:05:07.455Z,4.50
2017-12-31T12:07:34.967Z,6.17
2017-12-31T12:10:02.610Z,5.00
2017-12-31T12:12:30.192Z,4.40
2017-12-31T12:14:57.699Z,7.27
2017-12-31T12:17:25.215Z,9.20
2017-12-31T12:19:52.787Z,5.23
2017-12-31T12:22:20.344Z,7.90
2017-12-31T12:24:47.888Z,7.13
2017-12-31T12:27:15.428Z,5.17
2017-12-31T12:29:43.038Z,3.73
2017-12-31T12:32:10.575Z,8.80
2017-12-31T12:34:38.087Z,10.17
2017-12-31T12:37:05.688Z,3.87
2017-12-31T12:39:33.264Z,4.77
2017-12-31T12:42:00.800Z,4.17
2017-12-31T12:44:28.369Z,5.03
2017-12-31T12:46:56.138Z,3.40
2017-12-31T12:49:23.766Z,4.83
2017-12-31T12:51:51.310Z,3.63
2017-12-31T12:54:19.012Z,4.27
2017-12-31T12:56:46.569Z,3.60
2017-12-31T12:59:14.258Z,3.73
2017-12-31T13:01:41.849Z,4.00
2017-12-31T13:04:09.383Z,4.13
2017-12-31T13:06:36.962Z,4.43
2017-12-31T13:09:04.592Z,3.37
2017-12-31T13:11:32.267Z,4.20
2017-12-31T13:13:59.840Z,5.10
2017-12-31T13:16:27.415Z,6.67
2017-12-31T13:18:54.950Z,4.27
2017-12-31T13:21:22.581Z,4.50
2017-12-31T13:23:50.156Z,11.13
2017-12-31T13:26:17.733Z,5.07
2017-12-31T13:28:45.257Z,10.53
2017-12-31T13:31:12.828Z,7.00
2017-12-31T13:33:40.379Z,5.90
2017-12-31T13:36:07.941Z,7.30
2017-12-31T13:38:35.551Z,5.27
2017-12-31T13:41:03.087Z,6.53
2017-12-31T13:43:31.596Z,5.30
2017-12-31T13:45:59.127Z,4.53
2017-12-31T13:48:26.672Z,4.77
2017-12-31T13:50:54.202Z,5.00
2017-12-31T13:53:21.765Z,4.90
2017-12-31T13:55:49.326Z,4.63
2017-12-31T13:58:16.879Z,6.60
2017-12-31T14:00:44.458Z,4.20
2017-12-31T14:03:12.004Z,6.17
2017-12-31T14:05:39.588Z,6.37
2017-12-31T14:08:07.291Z,7.03
2017-12-31T14:10:34.808Z,7.43
2017-12-31T14:13:02.349Z,8.53
2017-12-31T14:15:29.948Z,7.60
2017-12-31T14:17:57.525Z,9.30
2017-12-31T14:20:25.209Z,10.43
2017-12-31T14:22:52.842Z,7.90
2017-12-31T14:25:20.380Z,9.10
2017-12-31T14:27:47.882Z,8.40
2017-12-31T14:30:15.426Z,8.07
2017-12-31T14:32:42.951Z,6.70
2017-12-31T14:35:10.511Z,8.47
2017-12-31T14:37:38.115Z,7.30
2017-12-31T14:40:05.687Z,7.47
2017-12-31T14:42:33.224Z,6.67
2017-12-31T14:45:00.788Z,7.30
2017-12-31T14:47:28.412Z,7.70
2017-12-31T14:49:56.022Z,7.60
2017-12-31T14:52:23.581Z,8.50
2017-12-31T14:54:51.528Z,10.60
2017-12-31T14:57:19.057Z,8.53
2017-12-31T14:59:46.576Z,6.60
2017-12-31T15:02:14.142Z,6.80
2017-12-31T15:04:41.663Z,6.20
2017-12-31T15:07:09.213Z,5.60
2017-12-31T15:09:36.872Z,6.90
2017-12-31T15:12:04.435Z,6.70
2017-12-31T15:14:31.979Z,6.37
2017-12-31T15:16:59.566Z,4.80
2017-12-31T15:19:27.168Z,6.17
2017-12-31T15:21:54.674Z,5.97
2017-12-31T15:24:22.357Z,5.20
2017-12-31T15:26:49.907Z,5.70
2017-12-31T15:29:17.419Z,6.60
2017-12-31T15:31:45.018Z,9.00
2017-12-31T15:34:12.544Z,6.90
2017-12-31T15:36:40.125Z,8.10
2017-12-31T15:39:07.747Z,6.73
2017-12-31T15:41:35.291Z,9.20
2017-12-31T15:44:02.836Z,8.70
2017-12-31T15:46:30.474Z,8.97
2017-12-31T15:48:58.029Z,15.30
2017-12-31T15:51:25.680Z,9.40
2017-12-31T15:53:53.224Z,8.20
2017-12-31T15:56:20.882Z,7.57
2017-12-31T15:58:48.539Z,8.33
2017-12-31T16:01:16.131Z,17.80
2017-12-31T16:03:43.678Z,11.23
2017-12-31T16:06:11.252Z,13.13
2017-12-31T16:08:38.824Z,11.77
2017-12-31T16:11:06.339Z,9.70
2017-12-31T16:13:33.900Z,10.30
2017-12-31T16:16:01.549Z,11.30
2017-12-31T16:18:29.338Z,13.60
2017-12-31T16:20:57.067Z,15.33
2017-12-31T16:23:24.591Z,15.53
2017-12-31T16:25:52.340Z,17.23
2017-12-31T16:28:19.869Z,18.50
2017-12-31T16:30:47.420Z,19.00
2017-12-31T16:33:15.049Z,17.80
2017-12-31T16:35:42.619Z,17.33
2017-12-31T16:38:10.151Z,15.47
2017-12-31T16:40:37.712Z,14.60
2017-12-31T16:43:05.275Z,19.90
2017-12-31T16:45:32.892Z,35.30
2017-12-31T16:48:00.605Z,18.67
2017-12-31T16:50:28.168Z,14.80
2017-12-31T16:52:55.754Z,16.97
2017-12-31T16:55:23.364Z,119.80
2017-12-31T16:57:50.924Z,18.60
2017-12-31T17:00:18.470Z,11.20
2017-12-31T17:02:46.024Z,11.87
2017-12-31T17:05:13.542Z,12.87
2017-12-31T17:07:41.357Z,14.50
2017-12-31T17:10:09.084Z,27.83
2017-12-31T17:12:36.760Z,9.77
2017-12-31T17:15:04.733Z,6.10
2017-12-31T17:17:32.387Z,3.70
2017-12-31T17:19:59.948Z,3.07
2017-12-31T17:22:27.505Z,2.50
2017-12-31T17:24:55.222Z,3.20
2017-12-31T17:27:22.899Z,2.60
2017-12-31T17:29:50.445Z,3.60
2017-12-31T17:32:18.009Z,3.47
2017-12-31T17:34:45.528Z,3.53
2017-12-31T17:37:13.068Z,3.30
2017-12-31T17:39:40.876Z,3.40
2017-12-31T17:42:08.422Z,3.83
2017-12-31T17:44:36.002Z,4.53
2017-12-31T17:47:03.559Z,3.40
2017-12-31T17:49:31.112Z,5.23
2017-12-31T17:51:58.714Z,4.57
2017-12-31T17:54:26.260Z,4.90
2017-12-31T17:56:53.780Z,6.10
2017-12-31T17:59:21.339Z,6.27
2017-12-31T18:01:49.138Z,5.17
2017-12-31T18:04:16.711Z,5.67
2017-12-31T18:06:44.251Z,6.27
2017-12-31T18:09:11.828Z,6.10
2017-12-31T18:11:39.360Z,5.67
2017-12-31T18:14:06.946Z,5.47
2017-12-31T18:16:34.566Z,6.20
2017-12-31T18:19:02.158Z,6.37
2017-12-31T18:21:29.749Z,9.80
2017-12-31T18:23:57.279Z,6.00
2017-12-31T18:26:24.791Z,6.90
2017-12-31T18:28:52.324Z,8.00
2017-12-31T18:31:20.018Z,8.27
2017-12-31T18:33:47.788Z,7.57
2017-12-31T18:36:15.332Z,8.67
2017-12-31T18:38:42.869Z,7.97
2017-12-31T18:41:10.611Z,6.10
2017-12-31T18:43:38.155Z,8.40
2017-12-31T18:46:05.672Z,5.73
2017-12-31T18:48:33.256Z,9.20
2017-12-31T18:51:03.501Z,6.30
2017-12-31T18:53:31.159Z,4.47
2017-12-31T18:56:00.151Z,8.40
2017-12-31T18:58:29.846Z,7.40
2017-12-31T19:00:58.768Z,26.20
2017-12-31T19:03:26.941Z,6.77
2017-12-31T19:05:54.476Z,10.07
2017-12-31T19:08:22.048Z,11.10
2017-12-31T19:10:49.588Z,9.90
2017-12-31T19:13:17.152Z,8.70
2017-12-31T19:15:44.740Z,11.03
2017-12-31T19:18:12.275Z,5.53
2017-12-31T19:20:39.795Z,6.90
2017-12-31T19:23:07.376Z,7.50
2017-12-31T19:25:34.888Z,9.53
2017-12-31T19:28:02.439Z,9.20
2017-12-31T19:30:29.992Z,6.87
2017-12-31T19:32:57.634Z,6.40
2017-12-31T19:35:25.233Z,6.00
2017-12-31T19:37:52.884Z,10.10
2017-12-31T19:40:20.431Z,7.57
2017-12-31T19:42:48.133Z,7.67
2017-12-31T19:45:15.677Z,8.50
2017-12-31T19:47:43.276Z,12.10
2017-12-31T19:50:10.831Z,11.47
2017-12-31T19:52:38.349Z,7.90
2017-12-31T19:55:05.880Z,8.90
2017-12-31T19:57:33.562Z,8.83
2017-12-31T20:00:01.116Z,10.70
2017-12-31T20:02:28.667Z,9.70
2017-12-31T20:04:56.241Z,10.63
2017-12-31T20:07:23.801Z,11.80
2017-12-31T20:09:51.376Z,11.30
2017-12-31T20:12:18.908Z,12.40
2017-12-31T20:14:46.504Z,16.93
2017-12-31T20:17:14.060Z,19.87
2017-12-31T20:19:41.621Z,15.73
2017-12-31T20:22:09.196Z,15.07
2017-12-31T20:24:36.767Z,13.33
2017-12-31T20:27:04.335Z,12.17
2017-12-31T20:29:31.875Z,10.50
2017-12-31T20:31:59.421Z,8.77
2017-12-31T20:34:27.013Z,8.60
2017-12-31T20:36:54.565Z,8.43
2017-12-31T20:39:22.211Z,7.20
2017-12-31T20:41:50.278Z,7.10
2017-12-31T20:44:17.973Z,9.90
2017-12-31T20:46:45.601Z,9.47
2017-12-31T20:49:13.149Z,8.23
2017-12-31T20:51:40.782Z,6.27
2017-12-31T20:54:08.347Z,6.67
2017-12-31T20:56:35.912Z,8.20
2017-12-31T20:59:03.470Z,8.60
2017-12-31T21:01:31.096Z,11.77
2017-12-31T21:03:58.659Z,14.53
2017-12-31T21:06:26.208Z,15.33
2017-12-31T21:08:53.731Z,15.37
2017-12-31T21:11:21.270Z,18.43
2017-12-31T21:13:48.810Z,15.80
2017-12-31T21:16:16.319Z,17.63
2017-12-31T21:18:43.880Z,20.63
2017-12-31T21:21:11.416Z,18.50
2017-12-31T21:23:38.992Z,19.13
2017-12-31T21:26:06.526Z,15.87
2017-12-31T21:28:34.071Z,15.10
2017-12-31T21:31:01.698Z,15.77
2017-12-31T21:33:29.229Z,12.23
2017-12-31T21:35:56.764Z,12.50
2017-12-31T21:38:24.355Z,10.67
2017-12-31T21:40:51.902Z,14.70
2017-12-31T21:43:19.415Z,13.80
2017-12-31T21:45:46.984Z,14.77
2017-12-31T21:48:14.524Z,15.27
2017-12-31T21:50:42.076Z,16.00
2017-12-31T21:53:09.671Z,16.53
2017-12-31T21:55:37.213Z,15.67
2017-12-31T21:58:04.765Z,15.93
2017-12-31T22:00:32.418Z,16.33
2017-12-31T22:02:59.935Z,15.23
2017-12-31T22:05:27.541Z,14.00
2017-12-31T22:07:55.062Z,16.40
2017-12-31T22:10:22.594Z,16.37
2017-12-31T22:12:50.129Z,15.93
2017-12-31T22:15:17.736Z,15.50
2017-12-31T22:17:45.272Z,11.37
2017-12-31T22:20:12.876Z,11.03
2017-12-31T22:22:40.416Z,13.27
2017-12-31T22:25:07.956Z,11.30
2017-12-31T22:27:35.551Z,11.53
2017-12-31T22:30:03.115Z,13.40
2017-12-31T22:32:30.775Z,12.40
2017-12-31T22:34:58.331Z,13.00
2017-12-31T22:37:25.842Z,15.67
2017-12-31T22:39:53.487Z,15.17
2017-12-31T22:42:21.025Z,15.40
2017-12-31T22:44:48.622Z,14.87
2017-12-31T22:47:16.187Z,14.77
2017-12-31T22:49:43.732Z,13.63
2017-12-31T22:52:11.315Z,14.27
2017-12-31T22:54:38.846Z,12.50
2017-12-31T22:57:06.610Z,13.33
2017-12-31T22:59:34.174Z,13.23
2017-12-31T23:02:01.742Z,18.80
2017-12-31T23:04:29.302Z,21.80
2017-12-31T23:06:56.839Z,29.73
2017-12-31T23:09:24.460Z,16.20
2017-12-31T23:11:52.028Z,15.20
2017-12-31T23:14:19.767Z,15.03
2017-12-31T23:16:47.291Z,16.27
2017-12-31T23:19:14.823Z,20.30
2017-12-31T23:21:42.383Z,24.50
2017-12-31T23:24:09.967Z,29.97
2017-12-31T23:26:37.522Z,31.00
2017-12-31T23:29:05.038Z,27.90
2017-12-31T23:31:32.646Z,50.00
2017-12-31T23:34:00.205Z,45.57
2017-12-31T23:36:27.738Z,53.67
2017-12-31T23:38:55.342Z,60.73
2017-12-31T23:41:22.917Z,55.43
2017-12-31T23:46:29.122Z,55.47
2017-12-31T23:48:56.686Z,54.37
2017-12-31T23:51:24.269Z,56.07
2017-12-31T23:53:51.824Z,50.60
2017-12-31T23:56:19.368Z,56.70
2017-12-31T23:58:46.981Z,58.63
